Time;durP1;ratioP1;P1;durP2;ratioP2;P2;SDS_P1;SDS_P2;PMS_P1;PMS_P2;Temp;Humidity;BMP_temperature;BMP_pressure;BME280_temperature;BME280_humidity;BME280_pressure;Samples;Min_cycle;Max_cycle;Signal;HPM_P1;HPM_P2
2022/09/07 00:00:36;;;;;;;38.63;28.12;;;;;;;8.80;65.40;100491.45;1819280;78;21522;-77
2022/09/07 00:03:03;;;;;;;37.48;26.37;;;;;;;8.77;65.50;100491.72;1808895;77;21049;-72
2022/09/07 00:05:30;;;;;;;43.35;28.07;;;;;;;8.72;65.71;100490.81;1781133;78;21155;-76
2022/09/07 00:07:56;;;;;;;39.88;27.45;;;;;;;8.68;65.82;100494.72;1825678;77;21490;-74
2022/09/07 00:10:23;;;;;;;39.15;28.02;;;;;;;8.63;65.83;100493.81;1823772;78;21532;-75
2022/09/07 00:12:50;;;;;;;40.67;28.67;;;;;;;8.59;65.92;100498.18;1822197;78;21074;-74
2022/09/07 00:15:18;;;;;;;38.67;28.00;;;;;;;8.56;65.95;100497.15;1824746;78;21011;-76
2022/09/07 00:17:44;;;;;;;38.98;26.12;;;;;;;8.52;65.91;100499.23;1820198;77;21069;-75
2022/09/07 00:20:12;;;;;;;38.25;26.45;;;;;;;8.49;65.99;100492.87;1820150;77;21108;-74
2022/09/07 00:22:38;;;;;;;37.17;26.23;;;;;;;8.48;66.05;100498.30;1781816;78;21168;-76
2022/09/07 00:25:06;;;;;;;39.50;27.32;;;;;;;8.45;66.06;100496.77;1822993;78;21505;-75
2022/09/07 00:27:32;;;;;;;38.45;26.05;;;;;;;8.43;66.03;100491.59;1810640;78;21081;-75
2022/09/07 00:29:59;;;;;;;39.88;27.13;;;;;;;8.41;66.07;100488.72;1821945;77;21014;-75
2022/09/07 00:32:25;;;;;;;38.30;27.10;;;;;;;8.40;66.12;100488.34;1823160;78;21077;-76
2022/09/07 00:34:51;;;;;;;40.40;27.05;;;;;;;8.39;66.05;100490.66;1808883;78;21109;-76
2022/09/07 00:37:18;;;;;;;45.58;28.23;;;;;;;8.38;66.10;100485.86;1811077;78;21018;-75
2022/09/07 00:39:44;;;;;;;43.83;26.85;;;;;;;8.38;66.15;100485.00;1823544;77;21409;-75
2022/09/07 00:42:11;;;;;;;35.65;24.37;;;;;;;8.40;66.03;100482.59;1809260;78;21529;-73
2022/09/07 00:44:56;;;;;;;41.98;26.80;;;;;;;8.58;65.79;100483.28;1818386;78;21033;-74
2022/09/07 00:47:33;;;;;;;42.25;26.52;;;;;;;8.65;65.45;100485.24;1823407;78;21135;-74
2022/09/07 00:50:08;;;;;;;45.98;26.40;;;;;;;8.63;65.33;100481.90;1813217;77;21015;-74
2022/09/07 00:52:35;;;;;;;37.58;24.95;;;;;;;8.64;65.59;100482.23;1792158;77;21050;-74
2022/09/07 00:55:05;;;;;;;40.80;26.57;;;;;;;8.63;65.61;100480.58;1807655;77;21015;-74
2022/09/07 00:57:32;;;;;;;40.48;27.15;;;;;;;8.60;65.54;100480.01;1790160;78;21038;-76
2022/09/07 00:59:59;;;;;;;41.83;27.02;;;;;;;8.57;65.59;100478.94;1781237;79;21319;-75
2022/09/07 01:02:25;;;;;;;39.75;27.13;;;;;;;8.52;65.67;100475.39;1805961;79;21082;-77
2022/09/07 01:04:57;;;;;;;38.58;27.40;;;;;;;8.49;65.83;100473.50;1794752;78;21132;-76
2022/09/07 01:07:25;;;;;;;39.15;27.77;;;;;;;8.46;65.91;100474.63;1786575;79;21086;-77
2022/09/07 01:09:52;;;;;;;38.08;27.40;;;;;;;8.41;65.94;100471.04;1783115;79;21098;-75
2022/09/07 01:12:19;;;;;;;38.65;26.27;;;;;;;8.38;66.08;100469.11;1799102;79;21245;-75
2022/09/07 01:14:49;;;;;;;43.83;28.10;;;;;;;8.32;66.19;100465.20;1795013;78;21133;-75
2022/09/07 01:17:50;;;;;;;37.88;26.68;;;;;;;8.30;66.27;100463.17;1804767;78;21519;-76
2022/09/07 01:20:54;;;;;;;39.83;25.97;;;;;;;8.28;66.15;100463.30;1795406;79;21511;-75
2022/09/07 01:23:44;;;;;;;43.45;25.57;;;;;;;8.26;66.02;100463.09;1804137;79;21545;-74
2022/09/07 01:26:38;;;;;;;42.75;25.30;;;;;;;8.24;65.96;100458.42;1796209;77;21084;-74
2022/09/07 01:29:31;;;;;;;39.20;24.72;;;;;;;8.21;65.84;100458.22;1796214;77;21027;-74
2022/09/07 01:32:18;;;;;;;34.08;22.05;;;;;;;8.20;65.61;100453.05;1803422;77;21058;-75
2022/09/07 01:34:46;;;;;;;37.78;23.10;;;;;;;8.19;65.52;100455.34;1808384;79;21015;-75
2022/09/07 01:37:21;;;;;;;34.78;22.67;;;;;;;8.18;65.46;100454.52;1791997;79;21021;-75
2022/09/07 01:39:55;;;;;;;35.90;21.40;;;;;;;8.17;65.45;100450.20;1798116;78;21171;-74
2022/09/07 01:42:27;;;;;;;30.23;21.07;;;;;;;8.17;65.38;100450.20;1809966;79;21026;-75
2022/09/07 01:44:58;;;;;;;30.57;19.97;;;;;;;8.18;65.25;100448.39;1805615;79;21019;-75
2022/09/07 01:47:38;;;;;;;29.55;20.45;;;;;;;8.18;65.21;100448.39;1804880;78;21027;-73
2022/09/07 01:50:13;;;;;;;27.52;18.20;;;;;;;8.19;65.24;100448.72;1809505;77;21018;-74
2022/09/07 01:52:57;;;;;;;23.75;16.62;;;;;;;8.18;65.19;100443.09;1781654;80;21093;-75
2022/09/07 01:55:46;;;;;;;25.80;17.32;;;;;;;8.19;65.07;100446.08;1818479;78;21038;-74
2022/09/07 01:58:39;;;;;;;28.30;17.67;;;;;;;8.20;65.09;100441.15;1817642;78;21029;-72
2022/09/07 02:01:14;;;;;;;24.87;16.15;;;;;;;8.20;65.13;100443.30;1812740;77;21081;-75
2022/09/07 02:03:49;;;;;;;23.15;14.50;;;;;;;8.19;65.27;100439.00;1822270;77;21029;-75
2022/09/07 02:06:45;;;;;;;21.42;13.75;;;;;;;8.18;65.21;100435.16;1811235;78;21128;-75
2022/09/07 02:09:24;;;;;;;19.20;13.55;;;;;;;8.19;65.15;100434.16;1800202;78;21038;-74
2022/09/07 02:11:50;;;;;;;20.12;13.20;;;;;;;8.18;65.19;100437.80;1811099;78;21082;-75
2022/09/07 02:14:22;;;;;;;25.00;14.07;;;;;;;8.18;65.26;100435.16;1817977;77;21053;-75
2022/09/07 02:17:21;;;;;;;19.60;13.55;;;;;;;8.16;65.33;100432.64;1824047;77;20981;-74
2022/09/07 02:19:55;;;;;;;16.65;12.07;;;;;;;8.13;65.43;100430.28;1810660;78;21257;-75
2022/09/07 02:22:26;;;;;;;18.27;12.40;;;;;;;8.12;65.47;100433.88;1816291;78;21031;-74
2022/09/07 02:24:58;;;;;;;19.48;12.30;;;;;;;8.10;65.46;100434.51;1811562;78;21045;-74
2022/09/07 02:27:30;;;;;;;16.65;11.78;;;;;;;8.08;65.56;100426.70;1823563;77;21069;-76
2022/09/07 02:29:56;;;;;;;15.80;11.33;;;;;;;8.05;65.59;100429.63;1815713;77;20981;-76
2022/09/07 02:32:23;;;;;;;16.12;11.28;;;;;;;8.03;65.70;100424.93;1822007;77;21090;-75
2022/09/07 02:34:49;;;;;;;17.42;10.95;;;;;;;8.01;65.78;100428.20;1818327;78;21065;-77
2022/09/07 02:37:16;;;;;;;15.25;10.40;;;;;;;8.00;65.87;100422.58;1798526;78;21041;-76
2022/09/07 02:39:42;;;;;;;12.20;9.30;;;;;;;8.00;65.97;100424.39;1821161;77;21090;-75
2022/09/07 02:42:09;;;;;;;12.25;8.53;;;;;;;7.99;65.98;100426.67;1821905;78;21068;-76
2022/09/07 02:44:37;;;;;;;12.78;8.33;;;;;;;7.98;66.10;100425.02;1808813;78;21806;-76
2022/09/07 02:47:31;;;;;;;12.18;9.05;;;;;;;7.98;66.22;100427.16;1806801;77;21017;-74
2022/09/07 02:50:36;;;;;;;13.58;8.73;;;;;;;7.97;66.21;100423.33;1802331;77;21077;-75
2022/09/07 02:53:23;;;;;;;12.90;8.35;;;;;;;7.95;66.28;100424.77;1808372;78;21050;-75
2022/09/07 02:56:24;;;;;;;10.75;7.83;;;;;;;7.92;66.33;100430.81;1804570;79;21121;-76
2022/09/07 02:59:26;;;;;;;11.93;7.58;;;;;;;7.91;66.33;100427.34;1785248;79;21175;-76
2022/09/07 03:02:07;;;;;;;11.97;7.70;;;;;;;7.90;66.46;100420.85;1801027;77;21041;-75
2022/09/07 03:04:56;;;;;;;11.63;6.83;;;;;;;7.87;66.55;100425.45;1806930;78;21155;-76
2022/09/07 03:07:31;;;;;;;12.30;6.70;;;;;;;7.87;66.45;100424.61;1791749;79;21046;-74
2022/09/07 03:09:59;;;;;;;8.83;6.08;;;;;;;7.87;66.39;100425.94;1778965;79;21030;-74
2022/09/07 03:12:46;;;;;;;11.20;6.45;;;;;;;7.87;66.41;100425.45;1787662;78;21276;-75
2022/09/07 03:15:19;;;;;;;13.50;6.78;;;;;;;7.87;66.36;100416.68;1804252;78;21099;-77
2022/09/07 03:17:46;;;;;;;11.22;6.40;;;;;;;7.87;66.35;100421.47;1800527;79;21050;-74
2022/09/07 03:20:12;;;;;;;8.93;6.20;;;;;;;7.86;66.34;100418.49;1804549;77;21019;-77
2022/09/07 03:22:42;;;;;;;10.30;5.83;;;;;;;7.87;66.27;100421.97;1797226;78;21077;-78
2022/09/07 03:25:09;;;;;;;11.70;7.00;;;;;;;7.87;66.26;100422.80;1808823;79;21118;-79
2022/09/07 03:27:36;;;;;;;10.63;6.60;;;;;;;7.87;66.29;100423.30;1809981;78;21018;-75
2022/09/07 03:30:06;;;;;;;11.30;6.03;;;;;;;7.87;66.25;100415.36;1789467;79;21589;-77
2022/09/07 03:32:34;;;;;;;7.85;5.72;;;;;;;7.87;66.33;100421.47;1775922;77;21070;-76
2022/09/07 03:35:01;;;;;;;10.93;5.45;;;;;;;7.86;66.09;100421.60;1843902;77;21061;-75
2022/09/07 03:37:29;;;;;;;10.82;6.08;;;;;;;7.85;66.12;100420.77;1773822;80;21045;-76
2022/09/07 03:39:56;;;;;;;10.45;5.80;;;;;;;7.84;65.77;100418.26;1736450;81;21072;-75
2022/09/07 03:42:22;;;;;;;7.50;5.17;;;;;;;7.84;65.57;100424.87;1732978;81;21041;-76
2022/09/07 03:44:49;;;;;;;7.67;5.03;;;;;;;7.84;65.54;100419.58;1759673;79;21026;-77
2022/09/07 03:47:16;;;;;;;7.60;5.33;;;;;;;7.84;65.41;100420.91;1786644;79;21082;-77
2022/09/07 03:49:43;;;;;;;9.55;5.17;;;;;;;7.84;65.40;100423.09;1809951;78;21089;-73
2022/09/07 03:52:09;;;;;;;8.00;5.35;;;;;;;7.84;65.25;100418.26;1825066;78;21030;-76
2022/09/07 03:54:36;;;;;;;6.83;5.12;;;;;;;7.86;65.10;100418.95;1821957;77;21038;-76
2022/09/07 03:57:02;;;;;;;8.85;5.25;;;;;;;7.87;64.91;100426.77;1794610;78;21887;-74
2022/09/07 03:59:30;;;;;;;8.08;4.92;;;;;;;7.88;64.78;100421.02;1797421;78;21112;-76
2022/09/07 04:01:56;;;;;;;8.93;5.90;;;;;;;7.89;64.72;100426.64;1824172;77;21252;-76
2022/09/07 04:04:23;;;;;;;8.15;5.10;;;;;;;7.91;64.57;100427.34;1809739;77;21222;-77
2022/09/07 04:06:53;;;;;;;9.10;5.45;;;;;;;7.94;64.41;100431.05;1822999;78;21061;-78
2022/09/07 04:09:19;;;;;;;9.08;5.97;;;;;;;7.99;64.14;100429.31;1817444;78;21029;-76
2022/09/07 04:11:46;;;;;;;9.23;5.28;;;;;;;8.06;63.82;100429.14;1820481;77;21089;-74
2022/09/07 04:14:12;;;;;;;11.08;5.70;;;;;;;8.14;63.50;100430.61;1824536;77;21303;-76
2022/09/07 04:16:40;;;;;;;7.37;5.15;;;;;;;8.20;63.45;100431.88;1839964;77;21091;-76
2022/09/07 04:19:06;;;;;;;8.00;5.47;;;;;;;8.23;63.14;100428.48;1828149;77;21585;-72
2022/09/07 04:21:34;;;;;;;12.10;5.65;;;;;;;8.28;62.93;100428.89;1778293;78;21088;-75
2022/09/07 04:24:02;;;;;;;7.87;5.45;;;;;;;8.34;62.72;100435.45;1794358;80;21522;-75
2022/09/07 04:26:31;;;;;;;8.80;6.08;;;;;;;8.39;62.71;100438.53;1814907;77;21525;-75
2022/09/07 04:28:58;;;;;;;8.07;5.20;;;;;;;8.44;62.57;100435.03;1820340;77;21158;-76
2022/09/07 04:31:25;;;;;;;8.50;6.03;;;;;;;8.50;62.53;100431.47;1808714;77;21055;-73
2022/09/07 04:33:53;;;;;;;7.47;5.45;;;;;;;8.56;62.43;100434.91;1799748;77;21534;-73
2022/09/07 04:36:20;;;;;;;7.12;5.00;;;;;;;8.61;62.35;100432.66;1762436;81;21072;-74
2022/09/07 04:38:46;;;;;;;9.20;5.62;;;;;;;8.67;62.34;100434.75;1776812;78;21285;-73
2022/09/07 04:41:15;;;;;;;7.83;5.12;;;;;;;8.73;62.26;100428.06;1812990;77;21041;-75
2022/09/07 04:43:42;;;;;;;8.83;5.97;;;;;;;8.78;62.26;100428.00;1824716;77;21638;-75
2022/09/07 04:46:20;;;;;;;9.20;5.28;;;;;;;8.85;62.19;100437.07;1814499;77;21295;-73
2022/09/07 04:48:48;;;;;;;7.85;5.28;;;;;;;8.92;62.12;100438.66;1824891;78;21104;-74
2022/09/07 04:51:15;;;;;;;7.08;5.40;;;;;;;9.00;61.98;100440.61;1810387;77;21212;-74
2022/09/07 04:53:41;;;;;;;7.58;5.40;;;;;;;9.06;61.97;100438.74;1816018;77;21070;-75
2022/09/07 04:56:08;;;;;;;9.88;5.25;;;;;;;9.14;61.87;100440.19;1814226;77;21058;-74
2022/09/07 04:58:35;;;;;;;13.62;5.60;;;;;;;9.20;61.52;100442.77;1816460;77;21030;-76
2022/09/07 05:01:04;;;;;;;7.55;5.83;;;;;;;9.27;61.47;100435.89;1808766;77;21494;-76
2022/09/07 05:03:31;;;;;;;10.85;5.55;;;;;;;9.35;61.46;100441.81;1786069;80;21743;-75
2022/09/07 05:06:02;;;;;;;7.10;4.50;;;;;;;9.42;61.07;100441.09;1795679;77;21093;-76
2022/09/07 05:08:40;;;;;;;9.45;5.40;;;;;;;9.50;60.67;100439.55;1804037;77;21010;-75
2022/09/07 05:11:08;;;;;;;7.53;5.55;;;;;;;9.57;60.45;100436.17;1821333;76;22078;-77
2022/09/07 05:13:35;;;;;;;9.85;5.47;;;;;;;9.66;60.34;100441.11;1826857;76;21042;-76
2022/09/07 05:16:10;;;;;;;6.90;5.37;;;;;;;9.74;59.83;100437.73;1815821;76;21093;-75
2022/09/07 05:18:37;;;;;;;9.20;5.97;;;;;;;9.80;59.55;100435.82;1774978;78;21104;-76
2022/09/07 05:21:13;;;;;;;7.33;5.72;;;;;;;9.84;59.26;100436.70;1778838;78;21616;-75
2022/09/07 05:23:40;;;;;;;7.58;5.45;;;;;;;9.90;59.17;100445.06;1793649;78;21574;-75
2022/09/07 05:26:08;;;;;;;10.60;6.05;;;;;;;9.94;59.02;100440.64;1826602;76;21068;-75
2022/09/07 05:28:35;;;;;;;8.28;5.25;;;;;;;10.00;58.76;100436.06;1825915;76;21157;-77
2022/09/07 05:31:08;;;;;;;8.13;5.25;;;;;;;10.07;58.45;100432.84;1813730;76;21018;-74
2022/09/07 05:33:36;;;;;;;9.23;5.28;;;;;;;10.13;58.24;100432.24;1820329;76;21017;-74
2022/09/07 05:36:05;;;;;;;7.72;5.15;;;;;;;10.19;57.99;100434.30;1826567;76;21085;-74
2022/09/07 05:38:35;;;;;;;6.15;4.45;;;;;;;10.25;57.62;100431.04;1825585;76;21066;-76
2022/09/07 05:41:16;;;;;;;7.60;5.08;;;;;;;10.31;57.60;100433.13;1827442;76;21739;-74
2022/09/07 05:43:42;;;;;;;6.28;4.90;;;;;;;10.39;57.27;100429.72;1828650;76;21158;-76
2022/09/07 05:46:09;;;;;;;8.65;5.40;;;;;;;10.46;56.87;100431.30;1825993;76;21022;-76
2022/09/07 05:48:36;;;;;;;10.53;5.60;;;;;;;10.52;56.72;100434.67;1829971;78;21580;-75
2022/09/07 05:51:03;;;;;;;11.73;5.58;;;;;;;10.56;56.54;100424.91;1827560;76;21054;-75
2022/09/07 05:53:33;;;;;;;7.42;4.37;;;;;;;10.64;56.61;100414.86;1815626;76;21486;-76
2022/09/07 05:56:00;;;;;;;6.55;4.37;;;;;;;10.73;56.02;100425.08;1777917;78;21034;-76
2022/09/07 05:58:27;;;;;;;7.22;5.47;;;;;;;10.78;55.81;100422.31;1800613;76;21599;-76
2022/09/07 06:01:04;;;;;;;9.73;5.30;;;;;;;10.86;55.71;100424.20;1821887;76;21104;-78
2022/09/07 06:03:35;;;;;;;8.70;5.12;;;;;;;10.93;55.52;100420.42;1804204;76;21170;-78
2022/09/07 06:06:06;;;;;;;7.62;5.87;;;;;;;11.02;55.66;100423.50;1825781;76;21089;-79
2022/09/07 06:08:35;;;;;;;6.95;5.28;;;;;;;11.12;55.23;100433.53;1827586;76;21070;-78
2022/09/07 06:11:08;;;;;;;9.03;6.08;;;;;;;11.20;55.05;100429.63;1827553;76;21112;-78
2022/09/07 06:13:35;;;;;;;10.23;5.62;;;;;;;11.26;54.86;100429.51;1829274;76;21041;-73
2022/09/07 06:16:03;;;;;;;9.18;4.95;;;;;;;11.30;54.63;100433.52;1820995;76;21090;-75
2022/09/07 06:18:31;;;;;;;8.83;6.40;;;;;;;11.36;54.62;100438.72;1824940;76;21909;-75
2022/09/07 06:21:04;;;;;;;7.72;5.53;;;;;;;11.42;54.57;100431.43;1826006;76;21029;-75
2022/09/07 06:23:33;;;;;;;7.35;5.25;;;;;;;11.48;54.50;100436.13;1812618;76;21048;-78
2022/09/07 06:26:00;;;;;;;9.68;5.30;;;;;;;11.57;54.32;100432.52;1775692;78;21111;-78
2022/09/07 06:28:33;;;;;;;7.90;5.05;;;;;;;11.64;54.06;100431.38;1783412;77;21038;-83
2022/09/07 06:31:01;;;;;;;7.17;4.87;;;;;;;11.72;53.79;100433.25;1803681;77;21390;-81
2022/09/07 06:33:28;;;;;;;6.62;5.22;;;;;;;11.80;53.35;100434.62;1805566;77;21038;-79
2022/09/07 06:35:57;;;;;;;7.40;5.15;;;;;;;11.88;52.94;100450.65;1830841;77;21106;-79
2022/09/07 06:38:30;;;;;;;7.97;5.35;;;;;;;11.94;52.76;100436.72;1812819;77;21569;-81
2022/09/07 06:41:28;;;;;;;7.90;4.78;;;;;;;12.02;52.62;100444.42;1814519;77;21015;-76
2022/09/07 06:43:48;;;;;;;8.20;4.03;;;;;;;12.09;52.74;100448.09;1798753;77;20963;-82
2022/09/07 06:46:15;;;;;;;5.55;3.87;;;;;;;12.22;51.82;100445.81;1789184;77;20978;-86
2022/09/07 06:48:42;;;;;;;6.03;4.58;;;;;;;12.29;51.07;100444.17;1786213;79;20979;-79
2022/09/07 06:51:15;;;;;;;4.83;4.03;;;;;;;12.37;50.86;100446.02;1820373;77;20994;-78
2022/09/07 06:53:41;;;;;;;4.65;3.52;;;;;;;12.44;50.82;100442.20;1798468;77;21046;-78
2022/09/07 06:56:13;;;;;;;6.87;4.10;;;;;;;12.52;51.38;100444.39;1811662;77;21087;-76
2022/09/07 06:58:40;;;;;;;7.42;3.70;;;;;;;12.65;51.40;100446.59;1785723;80;21503;-79
2022/09/07 07:01:16;;;;;;;4.72;3.35;;;;;;;12.76;50.68;100440.92;1785254;79;21404;-78
2022/09/07 07:03:43;;;;;;;6.42;4.60;;;;;;;12.87;50.10;100444.28;1801055;77;20998;-78
2022/09/07 07:06:11;;;;;;;4.67;3.25;;;;;;;12.94;49.68;100444.79;1814542;77;21167;-78
2022/09/07 07:08:38;;;;;;;6.72;3.62;;;;;;;12.98;49.47;100446.12;1815769;78;21171;-78
2022/09/07 07:11:07;;;;;;;6.05;4.05;;;;;;;13.04;49.91;100443.77;1819807;77;21054;-77
2022/09/07 07:13:34;;;;;;;4.53;3.55;;;;;;;13.13;49.95;100441.44;1814962;77;21081;-79
2022/09/07 07:16:09;;;;;;;5.40;4.03;;;;;;;13.21;49.48;100449.42;1810687;77;21011;-79
2022/09/07 07:18:36;;;;;;;4.65;3.45;;;;;;;13.26;49.12;100454.27;1806201;77;21099;-80
2022/09/07 07:21:04;;;;;;;3.85;3.30;;;;;;;13.33;48.57;100447.30;1808865;77;21225;-74
2022/09/07 07:23:31;;;;;;;6.97;4.30;;;;;;;13.40;48.55;100452.27;1808655;77;21027;-77
2022/09/07 07:26:06;;;;;;;4.95;3.30;;;;;;;13.50;48.25;100450.75;1789275;78;21563;-76
2022/09/07 07:28:34;;;;;;;4.22;3.00;;;;;;;13.55;47.68;100445.23;1817916;76;21257;-79
2022/09/07 07:31:02;;;;;;;5.80;3.10;;;;;;;13.60;47.56;100444.75;1824432;76;21081;-74
2022/09/07 07:33:32;;;;;;;4.87;3.42;;;;;;;13.67;47.49;100443.55;1820275;76;21184;-76
2022/09/07 07:36:16;;;;;;;4.85;3.05;;;;;;;13.73;46.90;100442.86;1823092;76;21057;-75
2022/09/07 07:38:45;;;;;;;4.28;3.35;;;;;;;13.76;46.68;100442.53;1827365;76;20965;-74
2022/09/07 07:41:12;;;;;;;4.05;3.00;;;;;;;13.82;46.94;100445.84;1823671;76;21060;-79
2022/09/07 07:43:39;;;;;;;4.30;2.92;;;;;;;13.88;46.39;100437.64;1831897;76;21267;-79
2022/09/07 07:46:06;;;;;;;3.90;2.65;;;;;;;13.94;46.75;100432.43;1823099;76;21140;-79
2022/09/07 07:48:36;;;;;;;3.98;2.75;;;;;;;14.04;46.53;100434.92;1804124;77;21060;-79
2022/09/07 07:51:06;;;;;;;5.05;3.65;;;;;;;14.14;46.50;100438.20;1781573;78;21045;-79
2022/09/07 07:53:36;;;;;;;6.25;4.17;;;;;;;14.26;46.57;100437.31;1824571;76;21033;-80
2022/09/07 07:56:03;;;;;;;5.75;2.85;;;;;;;14.39;47.05;100429.21;1818168;76;21613;-79
2022/09/07 07:58:30;;;;;;;4.10;2.45;;;;;;;14.56;46.92;100429.44;1820953;76;21207;-77
2022/09/07 08:01:04;;;;;;;3.10;2.60;;;;;;;14.71;46.65;100427.69;1817073;76;21068;-75
2022/09/07 08:03:34;;;;;;;6.75;3.30;;;;;;;14.89;46.38;100418.53;1815752;76;21041;-74
2022/09/07 08:06:10;;;;;;;4.90;2.70;;;;;;;15.05;45.46;100425.09;1746319;80;21011;-79
2022/09/07 08:08:37;;;;;;;3.37;2.15;;;;;;;15.14;43.60;100423.16;1733297;81;21007;-78
2022/09/07 08:11:10;;;;;;;4.15;2.60;;;;;;;15.16;43.67;100418.45;1742236;80;21374;-77
2022/09/07 08:13:39;;;;;;;3.95;3.02;;;;;;;15.20;43.95;100408.23;1742667;81;21471;-75
2022/09/07 08:16:06;;;;;;;4.50;3.12;;;;;;;15.24;43.79;100418.41;1734837;81;21085;-80
2022/09/07 08:18:36;;;;;;;3.33;2.22;;;;;;;15.29;44.08;100411.16;1733630;81;21065;-76
2022/09/07 08:21:09;;;;;;;3.80;2.02;;;;;;;15.34;43.02;100416.29;1743373;81;21046;-77
2022/09/07 08:23:36;;;;;;;;;;;;;;;15.42;40.68;100415.38;1732174;81;22421;-75
2022/09/07 08:26:02;;;;;;;3.95;2.17;;;;;;;15.49;41.31;100406.09;1750033;81;20171;-74
2022/09/07 08:28:31;;;;;;;3.85;2.25;;;;;;;15.58;41.92;100400.14;1747349;81;21586;-76
2022/09/07 08:30:58;;;;;;;6.85;3.08;;;;;;;15.71;42.24;100398.99;1739443;80;21081;-75
2022/09/07 08:33:25;;;;;;;5.30;2.50;;;;;;;15.85;42.08;100392.81;1734235;81;21014;-77
2022/09/07 08:35:58;;;;;;;3.25;2.87;;;;;;;15.99;42.16;100380.40;1756135;80;21035;-74
2022/09/07 08:38:25;;;;;;;3.47;2.45;;;;;;;16.17;42.33;100387.20;1740129;81;21531;-79
2022/09/07 08:40:52;;;;;;;3.83;2.30;;;;;;;16.41;41.40;100376.64;1742561;81;21544;-78
2022/09/07 08:43:48;;;;;;;3.83;2.20;;;;;;;16.63;41.56;100372.95;1736366;81;21062;-75
2022/09/07 08:46:38;;;;;;;2.98;2.00;;;;;;;16.85;40.62;100380.49;1730245;81;21061;-77
2022/09/07 08:49:06;;;;;;;2.47;2.27;;;;;;;17.04;40.20;100376.31;1743977;81;21121;-75
2022/09/07 08:51:39;;;;;;;5.22;1.98;;;;;;;17.24;40.20;100371.59;1746946;81;21137;-71
2022/09/07 08:54:05;;;;;;;4.80;2.05;;;;;;;17.47;39.58;100372.67;1740301;80;21083;-75
2022/09/07 08:56:38;;;;;;;3.65;2.05;;;;;;;17.66;38.98;100376.50;1752401;80;21038;-74
2022/09/07 08:59:24;;;;;;;2.87;2.42;;;;;;;17.79;39.31;100371.19;1740799;81;21483;-72
2022/09/07 09:01:51;;;;;;;2.25;1.80;;;;;;;17.99;38.39;100369.13;1744160;81;21222;-76
2022/09/07 09:04:24;;;;;;;4.20;1.95;;;;;;;18.02;38.57;100367.36;1741700;81;21022;-74
2022/09/07 09:07:39;;;;;;;2.50;2.02;;;;;;;18.22;38.13;100365.56;1723461;82;21082;-75
2022/09/07 09:10:32;;;;;;;2.27;1.72;;;;;;;18.56;37.51;100354.36;1704870;82;21082;-75
2022/09/07 09:13:27;;;;;;;3.97;2.23;;;;;;;19.12;36.83;100353.64;1710973;82;21570;-77
2022/09/07 09:16:02;;;;;;;1.87;1.75;;;;;;;19.58;36.16;100353.53;1706149;82;21133;-75
2022/09/07 09:18:46;;;;;;;2.75;1.92;;;;;;;20.06;35.58;100346.94;1721073;82;21673;-74
2022/09/07 09:21:17;;;;;;;2.22;2.00;;;;;;;20.59;35.01;100343.05;1723956;82;21067;-75
2022/09/07 09:23:47;;;;;;;2.92;1.80;;;;;;;20.99;34.26;100338.17;1725197;82;21035;-76
2022/09/07 09:26:25;;;;;;;2.40;2.20;;;;;;;21.31;33.90;100331.33;1726962;82;21583;-75
2022/09/07 09:28:52;;;;;;;2.55;2.27;;;;;;;21.67;33.60;100339.17;1719422;82;21082;-76
2022/09/07 09:31:27;;;;;;;2.58;2.37;;;;;;;22.12;33.13;100331.20;1719989;82;21035;-76
2022/09/07 09:34:13;;;;;;;2.80;2.30;;;;;;;22.51;32.37;100332.49;1713978;82;21050;-77
2022/09/07 09:36:46;;;;;;;3.15;2.22;;;;;;;22.74;31.96;100324.13;1721308;82;21043;-78
2022/09/07 09:39:27;;;;;;;3.25;2.05;;;;;;;23.06;32.19;100320.54;1710094;83;21111;-77
2022/09/07 09:41:56;;;;;;;4.15;2.30;;;;;;;23.84;31.98;100318.41;1708009;82;21224;-76
2022/09/07 09:44:22;;;;;;;2.40;2.20;;;;;;;24.61;30.64;100310.81;1709133;82;21024;-77
2022/09/07 09:46:52;;;;;;;3.15;2.10;;;;;;;24.98;29.72;100304.87;1724090;82;21032;-78
2022/09/07 09:49:29;;;;;;;3.33;2.40;;;;;;;25.26;29.95;100306.09;1704384;83;21534;-79
2022/09/07 09:51:59;;;;;;;2.95;2.08;;;;;;;25.87;30.16;100294.31;1718064;82;21065;-82
2022/09/07 09:54:39;;;;;;;2.75;2.30;;;;;;;26.54;28.89;100292.20;1727331;82;21232;-72
2022/09/07 09:57:05;;;;;;;2.17;1.98;;;;;;;26.96;28.88;100289.52;1729357;82;21070;-72
2022/09/07 09:59:32;;;;;;;2.95;2.75;;;;;;;27.47;27.61;100283.55;1729779;82;21086;-73
2022/09/07 10:02:00;;;;;;;3.10;2.80;;;;;;;27.72;27.99;100284.69;1702605;82;21050;-72
2022/09/07 10:07:31;;;;;;;3.77;2.80;;;;;;;28.62;27.35;100280.19;1888719;76;22536;-74
2022/09/07 10:09:57;;;;;;;2.83;2.62;;;;;;;28.90;26.90;100277.97;1850533;77;21499;-72
2022/09/07 10:12:34;;;;;;;3.52;2.70;;;;;;;29.08;26.54;100278.72;1846577;76;21184;-73
2022/09/07 10:15:06;;;;;;;2.98;2.77;;;;;;;29.38;26.36;100279.19;1833295;75;20980;-74
2022/09/07 10:17:39;;;;;;;4.53;2.50;;;;;;;29.64;26.31;100276.88;1819649;77;21509;-72
2022/09/07 10:20:19;;;;;;;3.45;2.83;;;;;;;29.74;26.27;100277.65;1832086;75;21130;-72
2022/09/07 10:22:52;;;;;;;2.70;2.50;;;;;;;29.72;25.86;100279.02;1843726;75;21045;-72
2022/09/07 10:25:39;;;;;;;2.83;2.33;;;;;;;29.25;26.43;100274.31;1858598;77;21106;-72
2022/09/07 10:28:16;;;;;;;3.62;2.80;;;;;;;28.93;26.04;100265.89;1843110;75;21363;-72
2022/09/07 10:31:17;;;;;;;4.60;2.62;;;;;;;28.25;26.33;100286.73;1840262;75;21020;-73
2022/09/07 10:34:08;;;;;;;2.87;2.30;;;;;;;27.51;26.63;100279.19;1857573;76;21609;-73
2022/09/07 10:37:07;;;;;;;2.92;2.65;;;;;;;26.58;27.30;100282.42;1844073;75;21448;-74
2022/09/07 10:39:41;;;;;;;5.05;2.58;;;;;;;26.35;27.83;100270.83;1843972;77;21078;-73
2022/09/07 10:42:28;;;;;;;4.08;2.77;;;;;;;26.10;27.73;100264.63;1844202;77;21072;-72
2022/09/07 10:45:12;;;;;;;2.98;2.70;;;;;;;26.02;27.96;100260.98;1838191;76;21041;-73
2022/09/07 10:48:06;;;;;;;2.95;2.65;;;;;;;26.27;27.98;100259.06;1857326;77;21079;-72
2022/09/07 10:50:52;;;;;;;3.65;2.80;;;;;;;26.77;27.73;100250.16;1814852;75;21025;-72
2022/09/07 10:53:32;;;;;;;3.40;2.60;;;;;;;27.34;27.30;100248.58;1845663;77;21146;-74
2022/09/07 10:56:26;;;;;;;3.42;2.58;;;;;;;27.63;26.37;100257.94;1845406;76;21072;-76
2022/09/07 10:59:30;;;;;;;2.75;2.55;;;;;;;27.31;26.71;100246.38;1794971;77;21036;-72
2022/09/07 11:02:25;;;;;;;5.20;2.60;;;;;;;27.20;27.00;100250.95;1848252;77;21096;-74
2022/09/07 11:05:09;;;;;;;5.47;2.62;;;;;;;27.47;26.90;100242.62;1836756;75;21056;-74
2022/09/07 11:07:55;;;;;;;4.25;2.58;;;;;;;28.17;26.58;100234.83;1830683;77;21189;-72
2022/09/07 11:10:51;;;;;;;2.62;2.42;;;;;;;28.92;25.64;100232.83;1796705;78;21033;-77
2022/09/07 11:13:36;;;;;;;3.83;2.35;;;;;;;29.17;25.81;100225.11;1815018;78;21110;-73
2022/09/07 11:16:08;;;;;;;2.12;1.92;;;;;;;29.81;25.47;100224.52;1811587;78;21041;-76
2022/09/07 11:18:38;;;;;;;2.58;2.37;;;;;;;30.41;25.24;100222.39;1812716;78;21024;-75
2022/09/07 11:21:09;;;;;;;2.50;2.30;;;;;;;31.11;24.90;100208.75;1784349;78;21523;-75
2022/09/07 11:23:46;;;;;;;6.78;3.15;;;;;;;31.87;24.45;100207.41;1809934;78;21088;-74
2022/09/07 11:26:23;;;;;;;3.08;2.62;;;;;;;32.72;23.81;100204.02;1807379;78;21070;-75
2022/09/07 11:29:09;;;;;;;3.70;2.40;;;;;;;33.53;23.46;100206.17;1821792;78;21033;-72
2022/09/07 11:31:57;;;;;;;2.95;2.30;;;;;;;34.33;22.91;100205.67;1809481;78;21541;-75
2022/09/07 11:34:40;;;;;;;3.17;2.20;;;;;;;34.83;22.14;100193.81;1816741;78;21142;-71
2022/09/07 11:37:24;;;;;;;3.00;2.40;;;;;;;34.46;22.16;100191.79;1811224;78;21044;-71
2022/09/07 11:39:57;;;;;;;3.02;2.30;;;;;;;33.88;22.26;100195.45;1815406;78;21095;-74
2022/09/07 11:42:32;;;;;;;4.37;2.52;;;;;;;33.63;22.48;100190.01;1806490;78;21080;-78
2022/09/07 11:45:15;;;;;;;4.00;2.47;;;;;;;33.94;22.47;100191.47;1815707;78;21557;-72
2022/09/07 11:47:50;;;;;;;2.75;2.55;;;;;;;33.95;21.98;100184.81;1799228;78;21146;-74
2022/09/07 11:50:20;;;;;;;4.03;2.35;;;;;;;33.27;22.44;100179.80;1827323;78;21032;-72
2022/09/07 11:52:56;;;;;;;3.55;2.60;;;;;;;32.57;22.89;100178.20;1816272;78;21045;-73
2022/09/07 11:55:28;;;;;;;2.85;2.42;;;;;;;31.88;22.98;100183.76;1816224;78;21519;-74